sensor_id;sensor_type;location;lat;lon;timestamp;P1;durP1;ratioP1;P2;durP2;ratioP2
17886;SDS011;9069;52.044;7.472;2023-01-05T00:01:07;14.60;;;3.72;;
17886;SDS011;9069;52.044;7.472;2023-01-05T00:03:35;16.52;;;4.43;;
17886;SDS011;9069;52.044;7.472;2023-01-05T00:06:03;17.35;;;3.00;;
17886;SDS011;9069;52.044;7.472;2023-01-05T00:08:41;23.42;;;3.75;;
17886;SDS011;9069;52.044;7.472;2023-01-05T00:11:11;13.43;;;2.67;;
17886;SDS011;9069;52.044;7.472;2023-01-05T00:14:02;17.00;;;3.13;;
17886;SDS011;9069;52.044;7.472;2023-01-05T00:16:48;14.57;;;3.28;;
17886;SDS011;9069;52.044;7.472;2023-01-05T00:19:34;15.95;;;3.15;;
17886;SDS011;9069;52.044;7.472;2023-01-05T00:22:20;13.77;;;2.90;;
17886;SDS011;9069;52.044;7.472;2023-01-05T00:25:01;18.35;;;4.03;;
17886;SDS011;9069;52.044;7.472;2023-01-05T00:27:41;24.73;;;3.17;;
17886;SDS011;9069;52.044;7.472;2023-01-05T00:30:11;13.93;;;2.92;;
17886;SDS011;9069;52.044;7.472;2023-01-05T00:32:40;15.02;;;3.40;;
17886;SDS011;9069;52.044;7.472;2023-01-05T00:35:09;12.02;;;2.95;;
17886;SDS011;9069;52.044;7.472;2023-01-05T00:37:37;16.52;;;2.97;;
17886;SDS011;9069;52.044;7.472;2023-01-05T00:40:04;19.98;;;4.15;;
17886;SDS011;9069;52.044;7.472;2023-01-05T00:42:33;17.38;;;3.20;;
17886;SDS011;9069;52.044;7.472;2023-01-05T00:44:59;25.85;;;3.53;;
17886;SDS011;9069;52.044;7.472;2023-01-05T00:47:27;19.33;;;3.30;;
17886;SDS011;9069;52.044;7.472;2023-01-05T00:49:53;19.13;;;3.45;;
17886;SDS011;9069;52.044;7.472;2023-01-05T00:52:20;13.07;;;2.50;;
17886;SDS011;9069;52.044;7.472;2023-01-05T00:54:47;20.35;;;2.92;;
17886;SDS011;9069;52.044;7.472;2023-01-05T00:57:13;20.15;;;3.90;;
17886;SDS011;9069;52.044;7.472;2023-01-05T00:59:40;17.23;;;3.67;;
17886;SDS011;9069;52.044;7.472;2023-01-05T01:02:08;13.65;;;3.20;;
17886;SDS011;9069;52.044;7.472;2023-01-05T01:04:36;20.65;;;3.58;;
17886;SDS011;9069;52.044;7.472;2023-01-05T01:07:03;17.10;;;4.22;;
17886;SDS011;9069;52.044;7.472;2023-01-05T01:09:31;14.77;;;3.03;;
17886;SDS011;9069;52.044;7.472;2023-01-05T01:11:58;16.80;;;3.70;;
17886;SDS011;9069;52.044;7.472;2023-01-05T01:14:25;15.65;;;2.88;;
17886;SDS011;9069;52.044;7.472;2023-01-05T01:16:52;18.80;;;2.97;;
17886;SDS011;9069;52.044;7.472;2023-01-05T01:19:19;15.23;;;2.92;;
17886;SDS011;9069;52.044;7.472;2023-01-05T01:21:48;24.35;;;3.15;;
17886;SDS011;9069;52.044;7.472;2023-01-05T01:24:15;15.27;;;3.47;;
17886;SDS011;9069;52.044;7.472;2023-01-05T01:26:48;14.05;;;3.17;;
17886;SDS011;9069;52.044;7.472;2023-01-05T01:29:15;16.80;;;3.22;;
17886;SDS011;9069;52.044;7.472;2023-01-05T01:31:48;23.00;;;3.38;;
17886;SDS011;9069;52.044;7.472;2023-01-05T01:34:17;13.57;;;2.55;;
17886;SDS011;9069;52.044;7.472;2023-01-05T01:36:44;19.95;;;3.67;;
17886;SDS011;9069;52.044;7.472;2023-01-05T01:39:12;16.13;;;3.15;;
17886;SDS011;9069;52.044;7.472;2023-01-05T01:41:43;25.00;;;4.72;;
17886;SDS011;9069;52.044;7.472;2023-01-05T01:47:31;21.90;;;3.42;;
17886;SDS011;9069;52.044;7.472;2023-01-05T01:50:14;18.13;;;3.20;;
17886;SDS011;9069;52.044;7.472;2023-01-05T01:52:56;21.35;;;3.53;;
17886;SDS011;9069;52.044;7.472;2023-01-05T01:55:28;16.83;;;3.30;;
17886;SDS011;9069;52.044;7.472;2023-01-05T01:57:56;18.35;;;4.00;;
17886;SDS011;9069;52.044;7.472;2023-01-05T02:00:24;20.20;;;3.50;;
17886;SDS011;9069;52.044;7.472;2023-01-05T02:02:52;21.90;;;3.22;;
17886;SDS011;9069;52.044;7.472;2023-01-05T02:05:23;19.55;;;3.97;;
17886;SDS011;9069;52.044;7.472;2023-01-05T02:07:54;20.45;;;4.00;;
17886;SDS011;9069;52.044;7.472;2023-01-05T02:10:28;24.13;;;3.85;;
17886;SDS011;9069;52.044;7.472;2023-01-05T02:16:00;20.23;;;3.42;;
17886;SDS011;9069;52.044;7.472;2023-01-05T02:18:48;18.63;;;3.70;;
17886;SDS011;9069;52.044;7.472;2023-01-05T02:21:47;29.30;;;4.30;;
17886;SDS011;9069;52.044;7.472;2023-01-05T02:24:25;26.02;;;4.20;;
17886;SDS011;9069;52.044;7.472;2023-01-05T02:33:37;19.15;;;4.07;;
17886;SDS011;9069;52.044;7.472;2023-01-05T02:36:17;16.30;;;3.70;;
17886;SDS011;9069;52.044;7.472;2023-01-05T02:39:00;17.23;;;3.20;;
17886;SDS011;9069;52.044;7.472;2023-01-05T02:41:36;27.30;;;4.38;;
17886;SDS011;9069;52.044;7.472;2023-01-05T02:44:07;19.20;;;4.07;;
17886;SDS011;9069;52.044;7.472;2023-01-05T02:46:34;25.75;;;3.80;;
17886;SDS011;9069;52.044;7.472;2023-01-05T02:49:01;20.27;;;3.35;;
17886;SDS011;9069;52.044;7.472;2023-01-05T02:51:37;14.35;;;3.45;;
17886;SDS011;9069;52.044;7.472;2023-01-05T02:56:39;20.33;;;4.80;;
17886;SDS011;9069;52.044;7.472;2023-01-05T02:59:11;22.10;;;3.92;;
17886;SDS011;9069;52.044;7.472;2023-01-05T03:01:49;23.95;;;4.13;;
17886;SDS011;9069;52.044;7.472;2023-01-05T03:04:44;22.13;;;4.95;;
17886;SDS011;9069;52.044;7.472;2023-01-05T03:07:13;17.25;;;3.65;;
17886;SDS011;9069;52.044;7.472;2023-01-05T03:09:43;23.58;;;3.85;;
17886;SDS011;9069;52.044;7.472;2023-01-05T03:12:47;20.48;;;3.25;;
17886;SDS011;9069;52.044;7.472;2023-01-05T03:15:30;19.80;;;3.55;;
17886;SDS011;9069;52.044;7.472;2023-01-05T03:17:59;18.58;;;3.15;;
17886;SDS011;9069;52.044;7.472;2023-01-05T03:20:33;21.80;;;3.80;;
17886;SDS011;9069;52.044;7.472;2023-01-05T03:23:04;21.65;;;3.38;;
17886;SDS011;9069;52.044;7.472;2023-01-05T03:25:52;18.92;;;4.10;;
17886;SDS011;9069;52.044;7.472;2023-01-05T03:28:43;17.95;;;2.85;;
17886;SDS011;9069;52.044;7.472;2023-01-05T03:31:37;21.45;;;3.25;;
17886;SDS011;9069;52.044;7.472;2023-01-05T03:34:31;20.05;;;3.40;;
17886;SDS011;9069;52.044;7.472;2023-01-05T03:37:31;13.80;;;3.03;;
17886;SDS011;9069;52.044;7.472;2023-01-05T03:40:21;19.08;;;3.25;;
17886;SDS011;9069;52.044;7.472;2023-01-05T03:42:53;18.10;;;3.70;;
17886;SDS011;9069;52.044;7.472;2023-01-05T03:45:21;20.25;;;3.75;;
17886;SDS011;9069;52.044;7.472;2023-01-05T03:47:51;26.52;;;3.75;;
17886;SDS011;9069;52.044;7.472;2023-01-05T03:50:23;20.95;;;3.47;;
17886;SDS011;9069;52.044;7.472;2023-01-05T03:52:50;18.40;;;3.70;;
17886;SDS011;9069;52.044;7.472;2023-01-05T03:55:17;15.63;;;3.38;;
17886;SDS011;9069;52.044;7.472;2023-01-05T03:57:46;24.83;;;3.20;;
17886;SDS011;9069;52.044;7.472;2023-01-05T04:00:14;21.10;;;3.65;;
17886;SDS011;9069;52.044;7.472;2023-01-05T04:02:48;21.05;;;3.47;;
17886;SDS011;9069;52.044;7.472;2023-01-05T04:05:19;20.00;;;3.92;;
17886;SDS011;9069;52.044;7.472;2023-01-05T04:07:46;25.27;;;3.80;;
17886;SDS011;9069;52.044;7.472;2023-01-05T04:10:14;19.10;;;2.80;;
17886;SDS011;9069;52.044;7.472;2023-01-05T04:12:42;15.93;;;3.33;;
17886;SDS011;9069;52.044;7.472;2023-01-05T04:15:09;16.88;;;3.20;;
17886;SDS011;9069;52.044;7.472;2023-01-05T04:17:37;19.42;;;3.80;;
17886;SDS011;9069;52.044;7.472;2023-01-05T04:20:04;19.15;;;3.13;;
17886;SDS011;9069;52.044;7.472;2023-01-05T04:22:32;18.15;;;3.95;;
17886;SDS011;9069;52.044;7.472;2023-01-05T04:24:59;22.08;;;3.63;;
17886;SDS011;9069;52.044;7.472;2023-01-05T04:27:28;20.55;;;3.72;;
17886;SDS011;9069;52.044;7.472;2023-01-05T04:29:55;15.65;;;3.53;;
17886;SDS011;9069;52.044;7.472;2023-01-05T04:32:22;23.35;;;3.95;;
17886;SDS011;9069;52.044;7.472;2023-01-05T04:34:48;17.00;;;4.00;;
17886;SDS011;9069;52.044;7.472;2023-01-05T04:37:19;17.85;;;3.38;;
17886;SDS011;9069;52.044;7.472;2023-01-05T04:39:46;22.52;;;4.20;;
17886;SDS011;9069;52.044;7.472;2023-01-05T04:42:13;12.00;;;2.65;;
17886;SDS011;9069;52.044;7.472;2023-01-05T04:44:42;21.73;;;3.72;;
17886;SDS011;9069;52.044;7.472;2023-01-05T04:47:09;17.13;;;3.15;;
17886;SDS011;9069;52.044;7.472;2023-01-05T04:49:39;20.02;;;3.30;;
17886;SDS011;9069;52.044;7.472;2023-01-05T04:52:07;19.90;;;3.30;;
17886;SDS011;9069;52.044;7.472;2023-01-05T04:54:35;19.00;;;3.40;;
17886;SDS011;9069;52.044;7.472;2023-01-05T04:57:05;15.40;;;3.15;;
17886;SDS011;9069;52.044;7.472;2023-01-05T04:59:32;16.50;;;3.30;;
17886;SDS011;9069;52.044;7.472;2023-01-05T05:02:01;16.75;;;3.35;;
17886;SDS011;9069;52.044;7.472;2023-01-05T05:04:30;14.20;;;3.10;;
17886;SDS011;9069;52.044;7.472;2023-01-05T05:06:58;16.20;;;3.55;;
17886;SDS011;9069;52.044;7.472;2023-01-05T05:09:28;12.02;;;2.92;;
17886;SDS011;9069;52.044;7.472;2023-01-05T05:11:57;15.90;;;3.17;;
17886;SDS011;9069;52.044;7.472;2023-01-05T05:14:24;19.52;;;3.47;;
17886;SDS011;9069;52.044;7.472;2023-01-05T05:16:54;16.83;;;3.25;;
17886;SDS011;9069;52.044;7.472;2023-01-05T05:19:21;13.43;;;2.70;;
17886;SDS011;9069;52.044;7.472;2023-01-05T05:21:47;14.68;;;3.33;;
17886;SDS011;9069;52.044;7.472;2023-01-05T05:24:14;15.77;;;3.25;;
17886;SDS011;9069;52.044;7.472;2023-01-05T05:26:43;14.45;;;2.58;;
17886;SDS011;9069;52.044;7.472;2023-01-05T05:29:10;14.68;;;3.05;;
17886;SDS011;9069;52.044;7.472;2023-01-05T05:31:36;13.55;;;2.70;;
17886;SDS011;9069;52.044;7.472;2023-01-05T05:34:03;21.15;;;4.45;;
17886;SDS011;9069;52.044;7.472;2023-01-05T05:36:30;18.17;;;2.80;;
17886;SDS011;9069;52.044;7.472;2023-01-05T05:38:58;20.75;;;3.10;;
17886;SDS011;9069;52.044;7.472;2023-01-05T05:41:24;21.77;;;2.90;;
17886;SDS011;9069;52.044;7.472;2023-01-05T05:43:51;16.92;;;2.97;;
17886;SDS011;9069;52.044;7.472;2023-01-05T05:46:18;19.75;;;3.40;;
17886;SDS011;9069;52.044;7.472;2023-01-05T05:48:44;15.75;;;2.72;;
17886;SDS011;9069;52.044;7.472;2023-01-05T05:51:11;14.10;;;2.88;;
17886;SDS011;9069;52.044;7.472;2023-01-05T05:53:38;13.00;;;2.78;;
17886;SDS011;9069;52.044;7.472;2023-01-05T05:56:04;14.05;;;3.05;;
17886;SDS011;9069;52.044;7.472;2023-01-05T05:58:31;16.25;;;2.83;;
17886;SDS011;9069;52.044;7.472;2023-01-05T06:00:58;13.70;;;2.80;;
17886;SDS011;9069;52.044;7.472;2023-01-05T06:03:25;12.70;;;2.65;;
17886;SDS011;9069;52.044;7.472;2023-01-05T06:05:52;17.08;;;3.42;;
17886;SDS011;9069;52.044;7.472;2023-01-05T06:08:19;20.92;;;3.15;;
17886;SDS011;9069;52.044;7.472;2023-01-05T06:10:47;21.23;;;4.30;;
17886;SDS011;9069;52.044;7.472;2023-01-05T06:13:14;16.85;;;3.22;;
17886;SDS011;9069;52.044;7.472;2023-01-05T06:15:42;16.25;;;3.58;;
17886;SDS011;9069;52.044;7.472;2023-01-05T06:18:09;18.90;;;3.03;;
17886;SDS011;9069;52.044;7.472;2023-01-05T06:20:35;16.70;;;3.53;;
17886;SDS011;9069;52.044;7.472;2023-01-05T06:23:02;17.98;;;3.50;;
17886;SDS011;9069;52.044;7.472;2023-01-05T06:25:29;16.30;;;3.53;;
17886;SDS011;9069;52.044;7.472;2023-01-05T06:27:56;17.23;;;3.17;;
17886;SDS011;9069;52.044;7.472;2023-01-05T06:30:22;17.80;;;3.38;;
17886;SDS011;9069;52.044;7.472;2023-01-05T06:32:50;15.25;;;3.35;;
17886;SDS011;9069;52.044;7.472;2023-01-05T06:35:17;18.17;;;3.90;;
17886;SDS011;9069;52.044;7.472;2023-01-05T06:37:44;13.57;;;2.88;;
17886;SDS011;9069;52.044;7.472;2023-01-05T06:40:11;20.40;;;3.33;;
17886;SDS011;9069;52.044;7.472;2023-01-05T06:42:38;20.98;;;3.08;;
17886;SDS011;9069;52.044;7.472;2023-01-05T06:45:06;21.60;;;3.58;;
17886;SDS011;9069;52.044;7.472;2023-01-05T06:47:34;21.08;;;3.75;;
17886;SDS011;9069;52.044;7.472;2023-01-05T06:50:01;19.88;;;3.15;;
17886;SDS011;9069;52.044;7.472;2023-01-05T06:52:28;14.63;;;3.47;;
17886;SDS011;9069;52.044;7.472;2023-01-05T06:54:55;16.40;;;3.22;;
17886;SDS011;9069;52.044;7.472;2023-01-05T06:57:21;17.67;;;3.90;;
17886;SDS011;9069;52.044;7.472;2023-01-05T06:59:49;19.88;;;4.90;;
17886;SDS011;9069;52.044;7.472;2023-01-05T07:02:16;19.35;;;3.60;;
17886;SDS011;9069;52.044;7.472;2023-01-05T07:04:43;17.38;;;3.75;;
17886;SDS011;9069;52.044;7.472;2023-01-05T07:07:13;20.70;;;3.67;;
17886;SDS011;9069;52.044;7.472;2023-01-05T07:09:40;20.55;;;4.32;;
17886;SDS011;9069;52.044;7.472;2023-01-05T07:12:07;21.20;;;4.10;;
17886;SDS011;9069;52.044;7.472;2023-01-05T07:14:34;26.00;;;3.40;;
17886;SDS011;9069;52.044;7.472;2023-01-05T07:17:00;14.07;;;3.25;;
17886;SDS011;9069;52.044;7.472;2023-01-05T07:19:27;13.73;;;2.78;;
17886;SDS011;9069;52.044;7.472;2023-01-05T07:21:54;18.63;;;3.53;;
17886;SDS011;9069;52.044;7.472;2023-01-05T07:24:22;15.55;;;3.33;;
17886;SDS011;9069;52.044;7.472;2023-01-05T07:26:49;23.30;;;3.88;;
17886;SDS011;9069;52.044;7.472;2023-01-05T07:29:15;18.30;;;3.45;;
17886;SDS011;9069;52.044;7.472;2023-01-05T07:31:43;14.88;;;2.92;;
17886;SDS011;9069;52.044;7.472;2023-01-05T07:34:10;20.48;;;4.18;;
17886;SDS011;9069;52.044;7.472;2023-01-05T07:36:36;18.42;;;4.18;;
17886;SDS011;9069;52.044;7.472;2023-01-05T07:39:03;21.70;;;3.20;;
17886;SDS011;9069;52.044;7.472;2023-01-05T07:41:30;22.27;;;3.90;;
17886;SDS011;9069;52.044;7.472;2023-01-05T07:43:57;14.95;;;3.42;;
17886;SDS011;9069;52.044;7.472;2023-01-05T07:46:23;17.35;;;3.30;;
17886;SDS011;9069;52.044;7.472;2023-01-05T07:48:50;14.82;;;3.05;;
17886;SDS011;9069;52.044;7.472;2023-01-05T07:51:17;19.67;;;3.33;;
17886;SDS011;9069;52.044;7.472;2023-01-05T07:53:43;16.70;;;3.40;;
17886;SDS011;9069;52.044;7.472;2023-01-05T07:56:10;16.85;;;3.22;;
17886;SDS011;9069;52.044;7.472;2023-01-05T07:58:37;23.58;;;4.22;;
17886;SDS011;9069;52.044;7.472;2023-01-05T08:01:08;18.20;;;3.67;;
17886;SDS011;9069;52.044;7.472;2023-01-05T08:03:37;15.60;;;3.40;;
17886;SDS011;9069;52.044;7.472;2023-01-05T08:06:05;14.05;;;3.28;;
17886;SDS011;9069;52.044;7.472;2023-01-05T08:08:36;14.68;;;2.90;;
17886;SDS011;9069;52.044;7.472;2023-01-05T08:11:04;17.17;;;3.05;;
17886;SDS011;9069;52.044;7.472;2023-01-05T08:13:31;14.13;;;2.95;;
17886;SDS011;9069;52.044;7.472;2023-01-05T08:16:17;13.45;;;2.95;;
17886;SDS011;9069;52.044;7.472;2023-01-05T08:18:44;14.57;;;3.22;;
17886;SDS011;9069;52.044;7.472;2023-01-05T08:21:11;21.40;;;4.90;;
17886;SDS011;9069;52.044;7.472;2023-01-05T08:23:38;23.17;;;4.03;;
17886;SDS011;9069;52.044;7.472;2023-01-05T08:26:06;12.10;;;3.55;;
17886;SDS011;9069;52.044;7.472;2023-01-05T08:28:36;20.90;;;3.67;;
17886;SDS011;9069;52.044;7.472;2023-01-05T08:31:04;20.30;;;3.15;;
17886;SDS011;9069;52.044;7.472;2023-01-05T08:33:32;14.00;;;3.35;;
17886;SDS011;9069;52.044;7.472;2023-01-05T08:36:00;21.73;;;4.00;;
17886;SDS011;9069;52.044;7.472;2023-01-05T08:38:26;21.95;;;3.80;;
17886;SDS011;9069;52.044;7.472;2023-01-05T08:40:56;13.85;;;3.13;;
17886;SDS011;9069;52.044;7.472;2023-01-05T08:43:24;19.25;;;3.65;;
17886;SDS011;9069;52.044;7.472;2023-01-05T08:45:51;15.80;;;3.67;;
17886;SDS011;9069;52.044;7.472;2023-01-05T08:48:18;19.15;;;3.55;;
17886;SDS011;9069;52.044;7.472;2023-01-05T08:50:45;14.57;;;3.47;;
17886;SDS011;9069;52.044;7.472;2023-01-05T08:53:12;11.98;;;3.55;;
17886;SDS011;9069;52.044;7.472;2023-01-05T08:55:38;19.77;;;4.22;;
17886;SDS011;9069;52.044;7.472;2023-01-05T08:58:05;12.88;;;3.53;;
17886;SDS011;9069;52.044;7.472;2023-01-05T09:00:32;22.35;;;3.80;;
17886;SDS011;9069;52.044;7.472;2023-01-05T09:02:59;21.27;;;3.65;;
17886;SDS011;9069;52.044;7.472;2023-01-05T09:05:26;15.85;;;3.42;;
17886;SDS011;9069;52.044;7.472;2023-01-05T09:07:53;19.15;;;3.17;;
17886;SDS011;9069;52.044;7.472;2023-01-05T09:10:20;19.75;;;3.22;;
17886;SDS011;9069;52.044;7.472;2023-01-05T09:12:46;11.50;;;3.35;;
17886;SDS011;9069;52.044;7.472;2023-01-05T09:15:13;22.23;;;3.55;;
17886;SDS011;9069;52.044;7.472;2023-01-05T09:17:40;17.70;;;3.60;;
17886;SDS011;9069;52.044;7.472;2023-01-05T09:20:07;15.85;;;3.08;;
17886;SDS011;9069;52.044;7.472;2023-01-05T09:22:34;22.17;;;4.13;;
17886;SDS011;9069;52.044;7.472;2023-01-05T09:25:03;17.67;;;3.80;;
17886;SDS011;9069;52.044;7.472;2023-01-05T09:27:30;25.40;;;3.85;;
17886;SDS011;9069;52.044;7.472;2023-01-05T09:29:57;20.25;;;4.32;;
17886;SDS011;9069;52.044;7.472;2023-01-05T09:32:24;34.30;;;13.77;;
17886;SDS011;9069;52.044;7.472;2023-01-05T09:34:51;36.92;;;13.35;;
17886;SDS011;9069;52.044;7.472;2023-01-05T09:37:17;24.85;;;8.57;;
17886;SDS011;9069;52.044;7.472;2023-01-05T09:39:45;28.38;;;9.70;;
17886;SDS011;9069;52.044;7.472;2023-01-05T09:42:16;20.00;;;5.55;;
17886;SDS011;9069;52.044;7.472;2023-01-05T09:44:50;22.45;;;6.68;;
17886;SDS011;9069;52.044;7.472;2023-01-05T09:50:04;34.53;;;12.57;;
17886;SDS011;9069;52.044;7.472;2023-01-05T09:52:33;28.10;;;11.38;;
17886;SDS011;9069;52.044;7.472;2023-01-05T09:55:13;29.45;;;7.85;;
17886;SDS011;9069;52.044;7.472;2023-01-05T10:00:40;26.73;;;8.00;;
17886;SDS011;9069;52.044;7.472;2023-01-05T10:03:14;22.65;;;5.80;;
17886;SDS011;9069;52.044;7.472;2023-01-05T10:06:05;22.38;;;6.18;;
17886;SDS011;9069;52.044;7.472;2023-01-05T10:08:38;21.38;;;6.80;;
17886;SDS011;9069;52.044;7.472;2023-01-05T10:11:19;22.63;;;6.57;;
17886;SDS011;9069;52.044;7.472;2023-01-05T10:14:14;20.90;;;5.20;;
17886;SDS011;9069;52.044;7.472;2023-01-05T10:16:44;31.80;;;9.40;;
17886;SDS011;9069;52.044;7.472;2023-01-05T10:19:16;21.35;;;6.20;;
17886;SDS011;9069;52.044;7.472;2023-01-05T10:22:06;20.08;;;6.30;;
17886;SDS011;9069;52.044;7.472;2023-01-05T10:24:43;30.90;;;5.88;;
17886;SDS011;9069;52.044;7.472;2023-01-05T10:35:59;22.23;;;5.93;;
17886;SDS011;9069;52.044;7.472;2023-01-05T10:44:51;15.38;;;4.95;;
17886;SDS011;9069;52.044;7.472;2023-01-05T10:47:24;18.10;;;5.15;;
17886;SDS011;9069;52.044;7.472;2023-01-05T10:49:53;19.75;;;5.32;;
17886;SDS011;9069;52.044;7.472;2023-01-05T10:52:21;22.02;;;4.75;;
17886;SDS011;9069;52.044;7.472;2023-01-05T10:54:53;18.08;;;4.43;;
17886;SDS011;9069;52.044;7.472;2023-01-05T11:00:17;23.60;;;5.05;;
17886;SDS011;9069;52.044;7.472;2023-01-05T11:02:49;21.20;;;4.80;;
17886;SDS011;9069;52.044;7.472;2023-01-05T11:05:21;21.17;;;5.43;;
17886;SDS011;9069;52.044;7.472;2023-01-05T11:07:58;17.42;;;4.90;;
17886;SDS011;9069;52.044;7.472;2023-01-05T11:13:05;19.30;;;5.22;;
17886;SDS011;9069;52.044;7.472;2023-01-05T11:15:46;20.23;;;5.63;;
17886;SDS011;9069;52.044;7.472;2023-01-05T11:18:31;20.45;;;5.32;;
17886;SDS011;9069;52.044;7.472;2023-01-05T11:21:15;21.45;;;4.40;;
17886;SDS011;9069;52.044;7.472;2023-01-05T11:23:48;21.73;;;4.63;;
17886;SDS011;9069;52.044;7.472;2023-01-05T11:26:21;19.60;;;3.80;;
17886;SDS011;9069;52.044;7.472;2023-01-05T11:31:42;12.73;;;4.00;;
17886;SDS011;9069;52.044;7.472;2023-01-05T11:36:55;19.40;;;3.33;;
17886;SDS011;9069;52.044;7.472;2023-01-05T11:39:32;22.15;;;3.70;;
17886;SDS011;9069;52.044;7.472;2023-01-05T11:44:56;16.27;;;3.30;;
17886;SDS011;9069;52.044;7.472;2023-01-05T11:47:26;17.80;;;3.47;;
17886;SDS011;9069;52.044;7.472;2023-01-05T11:52:43;17.75;;;3.75;;
17886;SDS011;9069;52.044;7.472;2023-01-05T11:57:49;15.23;;;3.35;;
17886;SDS011;9069;52.044;7.472;2023-01-05T12:01:08;18.65;;;3.72;;
17886;SDS011;9069;52.044;7.472;2023-01-05T12:17:24;18.88;;;3.55;;
17886;SDS011;9069;52.044;7.472;2023-01-05T12:20:04;18.02;;;3.40;;
17886;SDS011;9069;52.044;7.472;2023-01-05T12:23:01;15.10;;;3.28;;
17886;SDS011;9069;52.044;7.472;2023-01-05T12:26:01;17.23;;;3.35;;
17886;SDS011;9069;52.044;7.472;2023-01-05T12:32:10;14.68;;;3.15;;
17886;SDS011;9069;52.044;7.472;2023-01-05T12:35:15;15.35;;;3.90;;
17886;SDS011;9069;52.044;7.472;2023-01-05T12:44:09;14.18;;;3.13;;
17886;SDS011;9069;52.044;7.472;2023-01-05T12:49:41;15.45;;;3.45;;
17886;SDS011;9069;52.044;7.472;2023-01-05T12:52:13;12.52;;;2.95;;
17886;SDS011;9069;52.044;7.472;2023-01-05T12:55:23;17.65;;;3.50;;
17886;SDS011;9069;52.044;7.472;2023-01-05T12:58:03;19.30;;;3.95;;
17886;SDS011;9069;52.044;7.472;2023-01-05T13:00:38;10.13;;;3.00;;
17886;SDS011;9069;52.044;7.472;2023-01-05T13:08:55;27.85;;;3.58;;
17886;SDS011;9069;52.044;7.472;2023-01-05T13:11:33;22.80;;;3.63;;
17886;SDS011;9069;52.044;7.472;2023-01-05T13:14:04;16.90;;;3.30;;
17886;SDS011;9069;52.044;7.472;2023-01-05T13:16:39;20.80;;;2.78;;
17886;SDS011;9069;52.044;7.472;2023-01-05T13:19:18;16.48;;;2.80;;
17886;SDS011;9069;52.044;7.472;2023-01-05T13:21:51;14.80;;;2.92;;
17886;SDS011;9069;52.044;7.472;2023-01-05T13:24:28;12.10;;;2.75;;
17886;SDS011;9069;52.044;7.472;2023-01-05T13:27:19;17.35;;;3.00;;
17886;SDS011;9069;52.044;7.472;2023-01-05T13:29:47;19.77;;;3.50;;
17886;SDS011;9069;52.044;7.472;2023-01-05T13:37:35;18.35;;;3.28;;
17886;SDS011;9069;52.044;7.472;2023-01-05T13:43:57;14.98;;;2.95;;
17886;SDS011;9069;52.044;7.472;2023-01-05T13:52:55;19.00;;;2.75;;
17886;SDS011;9069;52.044;7.472;2023-01-05T13:55:24;17.58;;;2.75;;
17886;SDS011;9069;52.044;7.472;2023-01-05T13:57:52;12.15;;;3.63;;
17886;SDS011;9069;52.044;7.472;2023-01-05T14:00:36;11.48;;;3.03;;
17886;SDS011;9069;52.044;7.472;2023-01-05T14:05:48;17.42;;;3.25;;
17886;SDS011;9069;52.044;7.472;2023-01-05T14:08:39;20.95;;;3.83;;
17886;SDS011;9069;52.044;7.472;2023-01-05T14:13:40;18.92;;;4.10;;
17886;SDS011;9069;52.044;7.472;2023-01-05T14:27:18;17.73;;;3.50;;
17886;SDS011;9069;52.044;7.472;2023-01-05T14:37:51;18.85;;;3.60;;
17886;SDS011;9069;52.044;7.472;2023-01-05T14:40:37;18.13;;;3.90;;
17886;SDS011;9069;52.044;7.472;2023-01-05T14:43:07;22.27;;;3.78;;
17886;SDS011;9069;52.044;7.472;2023-01-05T14:45:45;11.20;;;3.20;;
17886;SDS011;9069;52.044;7.472;2023-01-05T14:48:33;13.30;;;3.17;;
17886;SDS011;9069;52.044;7.472;2023-01-05T14:51:45;13.38;;;3.67;;
17886;SDS011;9069;52.044;7.472;2023-01-05T14:53:59;12.30;;;3.72;;
17886;SDS011;9069;52.044;7.472;2023-01-05T14:56:35;19.17;;;4.00;;
17886;SDS011;9069;52.044;7.472;2023-01-05T14:59:16;14.60;;;3.30;;
17886;SDS011;9069;52.044;7.472;2023-01-05T15:04:26;13.52;;;3.40;;
17886;SDS011;9069;52.044;7.472;2023-01-05T15:07:02;16.23;;;3.63;;
17886;SDS011;9069;52.044;7.472;2023-01-05T15:26:38;13.80;;;3.50;;
17886;SDS011;9069;52.044;7.472;2023-01-05T15:35:10;18.80;;;3.80;;
17886;SDS011;9069;52.044;7.472;2023-01-05T15:37:42;16.42;;;3.38;;
17886;SDS011;9069;52.044;7.472;2023-01-05T15:42:48;18.70;;;3.13;;
17886;SDS011;9069;52.044;7.472;2023-01-05T15:45:18;14.65;;;3.30;;
17886;SDS011;9069;52.044;7.472;2023-01-05T15:48:04;10.93;;;3.25;;
17886;SDS011;9069;52.044;7.472;2023-01-05T15:50:42;19.25;;;3.35;;
17886;SDS011;9069;52.044;7.472;2023-01-05T15:53:25;15.63;;;3.55;;
17886;SDS011;9069;52.044;7.472;2023-01-05T15:55:52;11.02;;;2.90;;
17886;SDS011;9069;52.044;7.472;2023-01-05T15:58:20;16.02;;;3.50;;
17886;SDS011;9069;52.044;7.472;2023-01-05T16:01:01;16.38;;;3.83;;
17886;SDS011;9069;52.044;7.472;2023-01-05T16:03:34;13.05;;;3.05;;
17886;SDS011;9069;52.044;7.472;2023-01-05T16:06:06;17.90;;;3.80;;
17886;SDS011;9069;52.044;7.472;2023-01-05T16:08:43;14.50;;;3.75;;
17886;SDS011;9069;52.044;7.472;2023-01-05T16:11:13;14.93;;;3.63;;
17886;SDS011;9069;52.044;7.472;2023-01-05T16:16:25;15.18;;;3.60;;
17886;SDS011;9069;52.044;7.472;2023-01-05T16:27:35;19.23;;;4.45;;
17886;SDS011;9069;52.044;7.472;2023-01-05T16:30:11;9.55;;;2.88;;
17886;SDS011;9069;52.044;7.472;2023-01-05T16:41:06;18.10;;;3.72;;
17886;SDS011;9069;52.044;7.472;2023-01-05T16:43:55;18.67;;;3.72;;
17886;SDS011;9069;52.044;7.472;2023-01-05T16:51:35;16.55;;;3.22;;
17886;SDS011;9069;52.044;7.472;2023-01-05T16:54:12;20.27;;;4.07;;
17886;SDS011;9069;52.044;7.472;2023-01-05T16:59:39;19.08;;;4.72;;
17886;SDS011;9069;52.044;7.472;2023-01-05T17:02:28;13.45;;;3.50;;
17886;SDS011;9069;52.044;7.472;2023-01-05T17:05:10;17.63;;;3.65;;
17886;SDS011;9069;52.044;7.472;2023-01-05T17:08:09;19.42;;;4.10;;
17886;SDS011;9069;52.044;7.472;2023-01-05T17:10:43;16.33;;;3.47;;
17886;SDS011;9069;52.044;7.472;2023-01-05T17:15:46;15.63;;;4.10;;
17886;SDS011;9069;52.044;7.472;2023-01-05T17:18:18;19.00;;;3.85;;
17886;SDS011;9069;52.044;7.472;2023-01-05T17:20:49;23.55;;;4.55;;
17886;SDS011;9069;52.044;7.472;2023-01-05T17:23:20;22.48;;;4.60;;
17886;SDS011;9069;52.044;7.472;2023-01-05T17:25:56;17.80;;;4.50;;
17886;SDS011;9069;52.044;7.472;2023-01-05T17:28:24;16.75;;;4.22;;
17886;SDS011;9069;52.044;7.472;2023-01-05T17:30:51;15.85;;;4.22;;
17886;SDS011;9069;52.044;7.472;2023-01-05T17:33:18;19.67;;;4.03;;
17886;SDS011;9069;52.044;7.472;2023-01-05T17:35:45;12.93;;;3.85;;
17886;SDS011;9069;52.044;7.472;2023-01-05T17:38:17;19.20;;;4.22;;
17886;SDS011;9069;52.044;7.472;2023-01-05T17:40:44;15.55;;;4.10;;
17886;SDS011;9069;52.044;7.472;2023-01-05T17:43:11;22.83;;;4.63;;
17886;SDS011;9069;52.044;7.472;2023-01-05T17:45:38;17.20;;;4.93;;
17886;SDS011;9069;52.044;7.472;2023-01-05T17:48:07;18.92;;;3.92;;
17886;SDS011;9069;52.044;7.472;2023-01-05T17:50:34;14.68;;;4.25;;
17886;SDS011;9069;52.044;7.472;2023-01-05T17:53:01;22.45;;;5.95;;
17886;SDS011;9069;52.044;7.472;2023-01-05T17:55:29;16.92;;;4.47;;
17886;SDS011;9069;52.044;7.472;2023-01-05T17:57:56;16.35;;;5.10;;
17886;SDS011;9069;52.044;7.472;2023-01-05T18:00:24;15.02;;;5.07;;
17886;SDS011;9069;52.044;7.472;2023-01-05T18:02:53;22.00;;;6.75;;
17886;SDS011;9069;52.044;7.472;2023-01-05T18:05:20;22.00;;;6.45;;
17886;SDS011;9069;52.044;7.472;2023-01-05T18:07:48;14.35;;;5.63;;
17886;SDS011;9069;52.044;7.472;2023-01-05T18:10:21;17.73;;;6.15;;
17886;SDS011;9069;52.044;7.472;2023-01-05T18:12:53;26.38;;;8.02;;
17886;SDS011;9069;52.044;7.472;2023-01-05T18:15:20;26.80;;;8.23;;
17886;SDS011;9069;52.044;7.472;2023-01-05T18:17:47;19.83;;;7.50;;
17886;SDS011;9069;52.044;7.472;2023-01-05T18:20:14;17.77;;;7.57;;
17886;SDS011;9069;52.044;7.472;2023-01-05T18:22:45;16.98;;;7.22;;